Thursday, October 23, 2014, 2:37 AM EDT
Back to Local

KMPO, Mt Pocono Pocono Mountains

Location: Pocono Summit, PA, United States Lat: 41.133
Local Time: 2:37 AM EDT ( 6:37 GMT) Lon: -75.383
Time Zone: US/Eastern Elev: 1915 ft

Show me the last for .
Show Decoded

2014-10-23 01:53 METAR KMPO 230553Z AUTO 35014G25KT 10SM -RA OVC011 07/05 A2982 RMK AO2 PK WND
                 34028/0500 RAE20B45 SLP104 6//// T00720050 10089 20072 56013 TSNO PNO $ =
2014-10-23 00:53 METAR KMPO 230453Z AUTO 35015G26KT 7SM -RA FEW010 BKN013 OVC050 07/06 A2982 RMK
                 AO2 PK WND 35027/0359 SLP103 T00720056 401000072 TSNO PNO $ =
2014-10-23 00:03 METAR KMPO 230403Z AUTO 35018G27KT 10SM -RA BKN013 BKN020 OVC055 08/06 A2984 RMK
                 AO2 PK WND 35027/0359 T00780056 TSNO PNO $ =
2014-10-22 23:53 METAR KMPO 230353Z AUTO 35015G28KT 9SM -RA SCT011 OVC016 08/06 A2984 RMK AO2 PK
                 WND 33031/0336 SLP109 T00780056 TSNO PNO $ =
2014-10-22 23:37 METAR KMPO 230337Z AUTO 34018G31KT 10SM -RA BKN011 OVC015 08/06 A2983 RMK AO2 PK
                 WND 33031/0336 CIG 008V012 T00780056 TSNO PNO $ =
2014-10-22 22:53 METAR KMPO 230253Z AUTO 35012G22KT 10SM -RA OVC009 08/06 A2986 RMK AO2 PK WND
                 35027/0238 CIG 007V011 SLP117 6//// T00830061 58013 TSNO PNO $ =
2014-10-22 21:53 METAR KMPO 230153Z AUTO 34013G23KT 8SM -RA OVC010 08/07 A2988 RMK AO2 CIG
                 007V013 SLP123 T00830067 TSNO PNO $ =
2014-10-22 21:41 METAR KMPO 230141Z AUTO 35015G21KT 10SM -RA OVC010 09/07 A2988 RMK AO2 CIG
                 007V014 T00890067 TSNO PNO $ =
2014-10-22 20:53 METAR KMPO 230053Z AUTO 35010G20KT 5SM -RA BR BKN008 OVC013 09/07 A2988 RMK AO2
                 PK WND 02026/0003 CIG 006V010 SLP124 T00890067 TSNO PNO $ =
2014-10-22 19:53 METAR KMPO 222353Z AUTO 35013G24KT 5SM -RA BR OVC012 09/07 A2990 RMK AO2 SLP129
                 6//// T00890067 10100 20083 58003 TSNO PNO $ =
2014-10-22 18:53 METAR KMPO 222253Z AUTO 36013G22KT 10SM -RA OVC014 09/07 A2990 RMK AO2 PK WND
                 33027/2154 RAB09 SLP131 T00890067 TSNO PNO $ =
2014-10-22 18:15 METAR KMPO 222215Z AUTO 35012G26KT 10SM -RA OVC015 09/07 A2991 RMK AO2 PK WND
                 33027/2154 RAB09 T00890067 TSNO PNO $ =
2014-10-22 17:53 METAR KMPO 222153Z AUTO 35011G19KT 10SM OVC011 09/07 A2990 RMK AO2 RAE44 SLP130
                 T00890067 TSNO PNO $ =
2014-10-22 17:45 METAR KMPO 222145Z AUTO 35012G22KT 10SM OVC011 09/07 A2991 RMK AO2 RAE44 CIG
                 007V013 T00890067 TSNO PNO $ =
2014-10-22 17:03 METAR KMPO 222103Z AUTO 36014G23KT 4SM -RA BR OVC009 08/07 A2991 RMK AO2 CIG
                 007V011 T00830067 TSNO PNO $ =
2014-10-22 16:53 METAR KMPO 222053Z AUTO 35012G28KT 9SM -RA OVC011 09/07 A2991 RMK AO2 PK WND
                 01028/2049 RAB09 SLP132 6//// T00890067 56013 TSNO PNO $ =
2014-10-22 15:00 METAR KMPO 221900Z AUTO 36012G20KT 10SM OVC010 10/07 A2992 RMK AO2 T01000072
                 TSNO PNO $ =
2014-10-22 14:53 METAR KMPO 221853Z AUTO 36014G20KT 10SM OVC009 10/07 A2993 RMK AO2 RAB34E44
                 SLP138 T01000072 TSNO PNO $ =
2014-10-22 13:53 METAR KMPO 221753Z AUTO 01010G20KT 9SM OVC007 09/07 A2995 RMK AO2 SLP146 6////
                 T00940072 10100 20089 56012 TSNO PNO $ =
2014-10-22 12:53 METAR KMPO 221653Z AUTO 01012KT 7SM OVC008 10/08 A2996 RMK AO2 RAB20E31 CIG
                 006V013 SLP148 T01000078 TSNO PNO $ =
2014-10-22 11:53 METAR KMPO 221553Z AUTO 02012G17KT 10SM OVC007 09/08 A2997 RMK AO2 CIG 006V012
                 SLP154 T00940078 TSNO PNO $ =
2014-10-22 11:46 METAR KMPO 221546Z AUTO 01010KT 10SM OVC007 09/07 A2997 RMK AO2 CIG 006V011
                 T00940072 TSNO PNO $ =
2014-10-22 10:53 METAR KMPO 221453Z AUTO 02009G17KT 10SM OVC005 09/07 A2998 RMK AO2 CIG 005V009
                 SLP157 6//// T00940072 53006 TSNO PNO $ =
2014-10-22 10:02 METAR KMPO 221402Z AUTO 03009KT 10SM OVC006 09/08 A2997 RMK AO2 CIG 005V011
                 T00890078 TSNO PNO $ =
2014-10-22 09:53 METAR KMPO 221353Z AUTO 03013G17KT 10SM OVC007 09/07 A2997 RMK AO2 RAE10 CIG
                 005V009 SLP154 T00940072 TSNO PNO $ =
2014-10-22 09:50 METAR KMPO 221350Z AUTO 02010G18KT 10SM OVC007 09/07 A2997 RMK AO2 RAE10 CIG
                 005V009 TSNO PNO $ =
2014-10-22 09:19 METAR KMPO 221319Z AUTO 03011G16KT 10SM OVC006 09/07 A2997 RMK AO2 RAE10
                 T00890072 TSNO PNO $ =
2014-10-22 08:53 METAR KMPO 221253Z AUTO 03010G17KT 10SM -RA OVC007 09/08 A2996 RMK AO2 CIG
                 005V011 SLP151 T00940078 TSNO PNO $ =
2014-10-22 08:13 METAR KMPO 221213Z AUTO 02006KT 6SM -RA BR BKN007 OVC011 09/08 A2996 RMK AO2 CIG
                 005V009 T00940078 TSNO PNO $ =
2014-10-22 08:02 METAR KMPO 221202Z AUTO 03010KT 8SM -RA BKN006 OVC010 09/08 A2996 RMK AO2 CIG
                 005V010 T00940078 TSNO PNO $ =
2014-10-22 07:53 METAR KMPO 221153Z AUTO 03009KT 6SM -RA BR OVC008 09/08 A2995 RMK AO2 CIG
                 005V012 SLP147 6//// 7//// T00940078 10100 20094 53012 TSNO PNO $ =
2014-10-22 07:46 METAR KMPO 221146Z AUTO 04011KT 6SM -RA BR BKN006 OVC010 09/08 A2995 RMK AO2
                 T00940078 TSNO PNO $ =
2014-10-22 07:22 METAR KMPO 221122Z AUTO 02010KT 6SM -RA BR OVC007 09/08 A2995 RMK AO2 CIG
                 005V009 T00940078 TSNO PNO $ =
2014-10-22 06:53 METAR KMPO 221053Z AUTO 01009KT 10SM -RA BKN006 BKN010 OVC014 09/08 A2994 RMK
                 AO2 CIG 005V008 SLP141 T00940078 TSNO PNO $ =
2014-10-22 06:43 METAR KMPO 221043Z AUTO 02009KT 9SM -RA BKN008 OVC016 09/08 A2993 RMK AO2 CIG
                 005V012 T00940078 TSNO PNO $ =
2014-10-22 06:28 METAR KMPO 221028Z AUTO 01009KT 5SM -RA BR FEW008 BKN014 OVC035 09/08 A2993 RMK
                 AO2 T00940078 TSNO PNO $ =
2014-10-22 06:22 METAR KMPO 221022Z AUTO 02010KT 6SM -RA BR BKN017 OVC035 09/08 A2993 RMK AO2
                 T00940078 TSNO PNO $ =
2014-10-22 05:53 METAR KMPO 220953Z AUTO 02011KT 7SM -RA FEW008 OVC043 09/08 A2992 RMK AO2 RAB00
                 SLP135 T00940078 TSNO PNO $ =
2014-10-22 05:38 METAR KMPO 220938Z AUTO 01009KT 6SM -RA BR SCT006 SCT010 OVC047 09/08 A2992 RMK
                 AO2 RAB00 T00940078 TSNO PNO $ =
2014-10-22 05:12 METAR KMPO 220912Z AUTO 01009KT 5SM -RA BR OVC004 09/08 A2992 RMK AO2 RAB00 CIG
                 003V007 T00940078 TSNO PNO $ =
2014-10-22 04:53 METAR KMPO 220853Z AUTO 02007KT 9SM OVC006 09/08 A2992 RMK AO2 RAB01E23 CIG
                 004V009 SLP133 6//// T00940078 55002 TSNO PNO $ =
2014-10-22 04:32 METAR KMPO 220832Z AUTO 01008KT 10SM BKN005 OVC010 09/08 A2991 RMK AO2 RAB01E23
                 CIG 003V009 T00940078 TSNO PNO $ =
2014-10-22 03:53 METAR KMPO 220753Z AUTO 02007KT 9SM OVC004 09/08 A2991 RMK AO2 SLP132 T00940083
                 TSNO PNO $ =
2014-10-22 03:28 METAR KMPO 220728Z AUTO 01007KT 10SM BKN006 OVC009 09/08 A2991 RMK AO2 T00940078
                 TSNO PNO $ =
2014-10-22 02:53 METAR KMPO 220653Z AUTO 03008KT 10SM OVC005 09/08 A2992 RMK AO2 SLP133 T00940078
                 TSNO PNO $ =

Support USWX by starting your Amazon purchase here.